Time;durP1;ratioP1;P1;durP2;ratioP2;P2;SDS_P1;SDS_P2;PMS_P1;PMS_P2;Temp;Humidity;BMP_temperature;BMP_pressure;BME280_temperature;BME280_humidity;BME280_pressure;Samples;Min_cycle;Max_cycle;Signal;HPM_P1;HPM_P2
2022/08/05 00:01:56;;;;;;;9.20;4.80;;;16.20;1.00;;;;;;5062963;28;20021;-79
2022/08/05 00:04:22;;;;;;;4.65;4.00;;;16.30;1.00;;;;;;5067078;28;20032;-79
2022/08/05 00:06:47;;;;;;;6.22;4.40;;;16.20;1.00;;;;;;5054707;28;20033;-79
2022/08/05 00:09:13;;;;;;;5.05;3.88;;;16.40;1.00;;;;;;5055355;28;20032;-79
2022/08/05 00:11:39;;;;;;;4.97;4.20;;;16.20;1.00;;;;;;5073016;28;20066;-80
2022/08/05 00:14:05;;;;;;;6.80;4.30;;;16.20;1.00;;;;;;5061092;28;20536;-79
2022/08/05 00:16:31;;;;;;;6.50;4.10;;;16.20;1.00;;;;;;5061564;28;20041;-79
2022/08/05 00:18:56;;;;;;;9.77;4.38;;;16.00;1.00;;;;;;5060661;28;20020;-78
2022/08/05 00:21:22;;;;;;;10.20;4.30;;;16.10;1.00;;;;;;5062812;28;20032;-79
2022/08/05 00:23:47;;;;;;;7.50;4.90;;;16.10;1.00;;;;;;5063822;28;20022;-79
2022/08/05 00:26:14;;;;;;;9.50;4.20;;;16.10;1.00;;;;;;5066948;28;20081;-79
2022/08/05 00:28:40;;;;;;;6.72;3.72;;;16.10;1.00;;;;;;5074172;28;20029;-79
2022/08/05 00:31:06;;;;;;;7.63;4.65;;;16.20;1.00;;;;;;5064396;28;20026;-79
2022/08/05 00:33:32;;;;;;;5.88;3.90;;;16.20;1.00;;;;;;5060587;28;20029;-79
2022/08/05 00:35:58;;;;;;;7.38;4.57;;;16.10;1.00;;;;;;5057244;28;20099;-79
2022/08/05 00:38:24;;;;;;;6.05;4.20;;;16.10;1.00;;;;;;5060547;28;20030;-80
2022/08/05 00:40:52;;;;;;;7.25;4.32;;;16.10;1.00;;;;;;5062133;28;20029;-79
2022/08/05 00:43:18;;;;;;;9.70;4.00;;;16.10;1.00;;;;;;5061955;28;20021;-79
2022/08/05 00:45:44;;;;;;;9.13;4.15;;;16.10;1.00;;;;;;5056233;28;20048;-79
2022/08/05 00:48:18;;;;;;;5.38;3.72;;;16.10;1.00;;;;;;5055625;28;20037;-79
2022/08/05 00:50:46;;;;;;;6.60;3.72;;;15.90;1.00;;;;;;5070525;28;20025;-79
2022/08/05 00:53:13;;;;;;;4.35;3.60;;;16.00;1.00;;;;;;5050490;28;20032;-79
2022/08/05 00:55:38;;;;;;;6.13;3.83;;;16.00;1.00;;;;;;5058934;28;20031;-79
2022/08/05 00:58:04;;;;;;;7.53;3.80;;;16.00;1.00;;;;;;5068311;28;20049;-79
2022/08/05 01:00:30;;;;;;;6.00;3.70;;;16.00;1.00;;;;;;5057324;28;20025;-79
2022/08/05 01:02:57;;;;;;;4.63;3.33;;;16.10;1.00;;;;;;5066215;28;20017;-79
2022/08/05 01:05:23;;;;;;;4.78;3.70;;;15.90;1.00;;;;;;5051430;28;20036;-78
2022/08/05 01:07:49;;;;;;;6.70;4.05;;;15.90;1.00;;;;;;5049648;28;20029;-79
2022/08/05 01:10:17;;;;;;;8.00;4.00;;;15.90;1.00;;;;;;5057446;28;20037;-79
2022/08/05 01:12:47;;;;;;;4.78;4.13;;;15.90;1.00;;;;;;5051372;28;20132;-79
2022/08/05 01:15:16;;;;;;;8.45;4.25;;;15.90;1.00;;;;;;5061691;28;20036;-79
2022/08/05 01:17:51;;;;;;;5.82;4.30;;;15.80;1.00;;;;;;5057262;28;20033;-79
2022/08/05 01:20:41;;;;;;;7.45;4.40;;;15.80;1.00;;;;;;5060777;28;20040;-79
2022/08/05 01:23:36;;;;;;;5.50;4.00;;;15.80;1.00;;;;;;5073169;28;20027;-78
2022/08/05 01:26:20;;;;;;;5.85;3.85;;;15.90;1.00;;;;;;5072469;28;20033;-78
2022/08/05 01:29:32;;;;;;;3.92;3.60;;;15.80;1.00;;;;;;5070186;28;20033;-79
2022/08/05 01:32:04;;;;;;;7.75;4.18;;;15.80;1.00;;;;;;5046885;28;20029;-79
2022/08/05 01:34:33;;;;;;;5.10;3.88;;;15.70;1.00;;;;;;5066014;28;20501;-79
2022/08/05 01:37:08;;;;;;;5.50;4.03;;;15.70;1.00;;;;;;5048814;28;20048;-79
2022/08/05 01:39:37;;;;;;;8.98;4.22;;;15.70;1.00;;;;;;5061144;28;20072;-79
2022/08/05 01:42:10;;;;;;;5.63;3.75;;;15.50;1.00;;;;;;5062997;28;20024;-79
2022/08/05 01:44:36;;;;;;;6.60;4.20;;;15.60;1.00;;;;;;5061513;28;20033;-78
2022/08/05 01:47:03;;;;;;;7.10;3.72;;;15.40;1.00;;;;;;5063824;28;20020;-79
2022/08/05 01:49:31;;;;;;;8.80;4.20;;;15.50;1.00;;;;;;5057809;28;20029;-79
2022/08/05 01:52:00;;;;;;;7.53;5.35;;;15.50;1.00;;;;;;5051623;28;20021;-79
2022/08/05 01:54:34;;;;;;;8.05;5.20;;;15.40;1.00;;;;;;5049866;28;20049;-79
2022/08/05 01:57:01;;;;;;;6.50;4.25;;;15.40;1.00;;;;;;5056957;28;20029;-79
2022/08/05 01:59:30;;;;;;;5.30;4.80;;;15.50;1.00;;;;;;5062973;28;20021;-79
2022/08/05 02:01:57;;;;;;;5.97;5.30;;;15.50;4.10;;;;;;5050855;28;20029;-79
2022/08/05 02:04:27;;;;;;;6.22;4.32;;;15.60;23.90;;;;;;5050874;28;20108;-79
2022/08/05 02:06:53;;;;;;;6.47;4.40;;;15.60;1.00;;;;;;5049825;28;20029;-78
2022/08/05 02:09:18;;;;;;;5.72;4.50;;;15.60;1.00;;;;;;5057656;28;20029;-79
2022/08/05 02:11:49;;;;;;;6.25;4.22;;;15.60;8.20;;;;;;5049738;28;20065;-79
2022/08/05 02:14:42;;;;;;;5.45;4.18;;;15.50;1.00;;;;;;5058319;28;20085;-79
2022/08/05 02:17:26;;;;;;;6.93;4.60;;;15.60;1.00;;;;;;5065431;28;20056;-79
2022/08/05 02:19:56;;;;;;;8.48;4.60;;;15.60;1.00;;;;;;5050791;28;20029;-79
2022/08/05 02:22:28;;;;;;;5.82;4.43;;;15.70;1.00;;;;;;5062609;28;20036;-78
2022/08/05 02:25:20;;;;;;;6.93;4.65;;;15.70;1.00;;;;;;5062841;28;20056;-79
2022/08/05 02:27:49;;;;;;;6.78;4.72;;;15.80;1.00;;;;;;5056821;28;20046;-78
2022/08/05 02:30:16;;;;;;;6.88;5.03;;;15.80;1.00;;;;;;5060546;28;20025;-78
2022/08/05 02:32:45;;;;;;;8.25;5.05;;;15.70;1.00;;;;;;5050922;28;20037;-78
2022/08/05 02:35:15;;;;;;;8.90;5.00;;;15.70;1.00;;;;;;5062367;28;20045;-79
2022/08/05 02:37:42;;;;;;;;;;;15.60;1.00;;;;;;5066417;28;20021;-78
2022/08/05 02:40:09;;;;;;;6.40;5.00;;;15.60;1.00;;;;;;5063871;28;19963;-79
2022/08/05 02:42:37;;;;;;;5.43;4.85;;;15.50;1.00;;;;;;5060082;28;20026;-79
2022/08/05 02:45:05;;;;;;;8.30;4.45;;;15.60;1.00;;;;;;5052346;28;20388;-79
2022/08/05 02:47:34;;;;;;;5.97;4.50;;;15.60;1.00;;;;;;5064355;28;20084;-78
2022/08/05 02:50:00;;;;;;;6.78;4.25;;;15.60;5.80;;;;;;5062838;28;20025;-78
2022/08/05 02:52:26;;;;;;;7.57;4.50;;;15.60;1.00;;;;;;5062059;28;20467;-78
2022/08/05 02:54:53;;;;;;;7.45;4.10;;;15.50;1.00;;;;;;5060213;28;20059;-79
2022/08/05 02:57:20;;;;;;;6.70;4.43;;;15.50;2.10;;;;;;5069308;28;20033;-78
2022/08/05 02:59:48;;;;;;;7.53;4.55;;;15.40;3.00;;;;;;5055432;28;20136;-78
2022/08/05 03:02:17;;;;;;;7.38;4.60;;;15.30;25.00;;;;;;5051068;28;20036;-78
2022/08/05 03:04:44;;;;;;;5.93;4.38;;;15.30;19.60;;;;;;5064213;28;20088;-78
2022/08/05 03:07:10;;;;;;;6.22;4.53;;;15.30;37.10;;;;;;5061391;28;20064;-78
2022/08/05 03:09:37;;;;;;;6.97;4.68;;;15.20;41.60;;;;;;5061597;28;20156;-79
2022/08/05 03:12:03;;;;;;;6.18;4.82;;;15.20;44.80;;;;;;5062615;28;20096;-78
2022/08/05 03:14:29;;;;;;;7.07;4.57;;;15.10;64.40;;;;;;5050233;28;20056;-78
2022/08/05 03:16:54;;;;;;;7.10;4.47;;;15.10;78.70;;;;;;5050683;28;20030;-78
2022/08/05 03:19:20;;;;;;;7.40;4.55;;;15.10;90.90;;;;;;5051014;28;20025;-78
2022/08/05 03:21:45;;;;;;;7.53;4.78;;;15.00;91.70;;;;;;5050968;28;20029;-78
2022/08/05 03:24:11;;;;;;;8.38;4.75;;;15.00;88.70;;;;;;5058518;28;20021;-78
2022/08/05 03:26:37;;;;;;;6.57;5.13;;;15.00;93.70;;;;;;5064656;28;20076;-79
2022/08/05 03:29:03;;;;;;;5.82;4.65;;;15.00;98.80;;;;;;5060095;28;20025;-78
2022/08/05 03:31:29;;;;;;;8.40;4.03;;;15.00;97.70;;;;;;5051926;28;20026;-78
2022/08/05 03:33:56;;;;;;;6.75;4.10;;;14.90;92.50;;;;;;5060835;28;20053;-79
2022/08/05 03:36:22;;;;;;;6.43;4.07;;;14.90;90.40;;;;;;5050893;28;20053;-79
2022/08/05 03:38:48;;;;;;;5.95;4.22;;;14.80;35.00;;;;;;5057994;28;20101;-79
2022/08/05 03:41:15;;;;;;;5.60;4.35;;;14.80;21.30;;;;;;5064009;28;20492;-78
2022/08/05 03:43:41;;;;;;;4.70;4.18;;;14.80;24.90;;;;;;5059930;28;20025;-78
2022/08/05 03:46:07;;;;;;;7.53;4.55;;;14.90;42.70;;;;;;5071668;28;20032;-78
2022/08/05 03:48:32;;;;;;;7.32;4.88;;;15.00;49.20;;;;;;5066093;28;20022;-78
2022/08/05 03:51:10;;;;;;;8.07;4.28;;;15.10;37.70;;;;;;5059578;28;20028;-78
2022/08/05 03:53:56;;;;;;;7.53;5.32;;;15.10;66.00;;;;;;5063040;28;20036;-79
2022/08/05 03:56:30;;;;;;;8.70;4.90;;;15.20;27.40;;;;;;5061981;28;20112;-79
2022/08/05 03:58:59;;;;;;;5.80;4.47;;;15.30;45.70;;;;;;5061203;28;20079;-78
2022/08/05 04:01:29;;;;;;;5.18;4.47;;;15.20;46.90;;;;;;5059721;28;20373;-78
2022/08/05 04:03:56;;;;;;;5.20;4.70;;;15.20;66.70;;;;;;5070400;28;20052;-78
2022/08/05 04:06:22;;;;;;;7.45;5.63;;;15.10;85.90;;;;;;5060238;28;20412;-78
2022/08/05 04:08:48;;;;;;;9.05;5.90;;;15.00;97.60;;;;;;5064227;28;20150;-78
2022/08/05 04:11:15;;;;;;;7.78;5.63;;;15.00;99.90;;;;;;5052052;28;20033;-78
2022/08/05 04:13:41;;;;;;;10.60;6.80;;;15.00;99.90;;;;;;5051268;28;20089;-78
2022/08/05 04:16:12;;;;;;;12.35;6.20;;;14.90;99.90;;;;;;5061568;28;20044;-78
2022/08/05 04:18:38;;;;;;;7.28;6.32;;;15.00;99.90;;;;;;5073484;28;20021;-78
2022/08/05 04:21:05;;;;;;;7.93;6.55;;;14.90;99.90;;;;;;5064991;28;20021;-78
2022/08/05 04:23:32;;;;;;;9.35;6.60;;;15.00;99.90;;;;;;5062101;28;20035;-78
2022/08/05 04:25:58;;;;;;;8.43;5.03;;;14.90;99.90;;;;;;5070657;28;20044;-78
2022/08/05 04:28:24;;;;;;;8.85;4.60;;;15.10;99.90;;;;;;5059112;28;20029;-78
2022/08/05 04:30:49;;;;;;;7.03;4.65;;;15.50;99.90;;;;;;5063874;28;20148;-79
2022/08/05 04:33:16;;;;;;;7.28;4.65;;;15.80;23.40;;;;;;5056072;28;20040;-79
2022/08/05 04:35:42;;;;;;;10.27;5.50;;;15.90;1.00;;;;;;5064890;28;20044;-78
2022/08/05 04:38:08;;;;;;;5.35;4.72;;;16.00;1.00;;;;;;5061598;28;20021;-79
2022/08/05 04:40:38;;;;;;;5.80;5.15;;;16.10;1.00;;;;;;5067155;28;20044;-79
2022/08/05 04:43:04;;;;;;;;;;;16.20;1.00;;;;;;5067491;28;20033;-79
2022/08/05 04:45:30;;;;;;;6.03;4.47;;;16.20;1.00;;;;;;5067612;28;19917;-79
2022/08/05 04:48:10;;;;;;;6.82;4.20;;;16.30;1.00;;;;;;5062126;28;20064;-79
2022/08/05 04:50:44;;;;;;;7.57;4.47;;;16.30;1.00;;;;;;5063343;28;20041;-79
2022/08/05 04:53:11;;;;;;;8.43;5.10;;;16.30;1.00;;;;;;5065202;28;20029;-79
2022/08/05 04:55:38;;;;;;;5.15;4.10;;;16.30;1.00;;;;;;5060076;28;20026;-81
2022/08/05 04:58:05;;;;;;;7.32;3.97;;;16.50;1.00;;;;;;5064755;28;20017;-81
2022/08/05 05:00:35;;;;;;;4.28;3.90;;;16.50;1.00;;;;;;5061653;28;20032;-80
2022/08/05 05:03:02;;;;;;;4.82;3.63;;;16.60;1.00;;;;;;5067470;28;20078;-81
2022/08/05 05:05:28;;;;;;;4.93;3.72;;;16.70;1.00;;;;;;5066260;28;20601;-81
2022/08/05 05:07:58;;;;;;;5.78;4.25;;;16.70;1.00;;;;;;5064678;28;20036;-81
2022/08/05 05:10:24;;;;;;;4.68;4.18;;;16.60;1.00;;;;;;5060008;28;20085;-80
2022/08/05 05:12:49;;;;;;;5.88;4.22;;;16.60;1.00;;;;;;5065300;28;20025;-80
2022/08/05 05:15:15;;;;;;;5.15;4.53;;;16.50;1.00;;;;;;5063995;28;20029;-80
2022/08/05 05:17:42;;;;;;;6.78;5.18;;;16.50;1.00;;;;;;5060804;28;20103;-80
2022/08/05 05:20:10;;;;;;;7.45;4.60;;;16.50;1.00;;;;;;5059416;28;20088;-80
2022/08/05 05:22:36;;;;;;;7.20;5.00;;;16.50;1.00;;;;;;5064282;28;20032;-80
2022/08/05 05:25:02;;;;;;;8.93;4.78;;;17.80;99.90;;;;;;5063347;28;20044;-80
2022/08/05 05:27:30;;;;;;;8.05;5.18;;;18.90;99.90;;;;;;5076002;28;20040;-82
2022/08/05 05:29:55;;;;;;;5.57;4.20;;;20.30;99.90;;;;;;5071863;28;20040;-80
2022/08/05 05:32:21;;;;;;;6.95;4.53;;;19.90;99.90;;;;;;5071936;28;20025;-80
2022/08/05 05:34:46;;;;;;;6.70;5.15;;;21.70;99.90;;;;;;5067294;28;20055;-80
2022/08/05 05:37:13;;;;;;;4.30;3.92;;;25.00;99.90;;;;;;5061575;28;20044;-80
2022/08/05 05:39:39;;;;;;;4.53;3.47;;;27.00;99.90;;;;;;5064129;28;20035;-81
2022/08/05 05:42:05;;;;;;;3.67;3.38;;;28.20;99.90;;;;;;5064985;28;20028;-80
2022/08/05 05:44:31;;;;;;;4.88;3.10;;;29.60;99.90;;;;;;5052245;28;20048;-79
2022/08/05 05:46:56;;;;;;;4.00;3.03;;;30.70;99.90;;;;;;5055156;28;20395;-80
2022/08/05 05:49:22;;;;;;;3.92;3.03;;;31.40;99.90;;;;;;5050308;28;20377;-80
2022/08/05 05:51:48;;;;;;;3.67;2.75;;;32.10;99.90;;;;;;5049496;28;20099;-80
2022/08/05 05:54:14;;;;;;;3.92;2.65;;;33.10;99.90;;;;;;5044030;28;20025;-80
2022/08/05 05:56:39;;;;;;;5.15;3.15;;;33.80;99.90;;;;;;5043662;28;20052;-80
2022/08/05 05:59:05;;;;;;;4.35;2.58;;;34.10;99.90;;;;;;5048524;28;20028;-80
2022/08/05 06:01:36;;;;;;;3.97;1.80;;;34.10;99.90;;;;;;5055801;28;20033;-80
2022/08/05 06:04:01;;;;;;;2.47;1.88;;;35.20;99.90;;;;;;5062483;28;20021;-81
2022/08/05 06:06:27;;;;;;;2.88;2.00;;;35.30;99.90;;;;;;5047755;28;20060;-80
2022/08/05 06:08:53;;;;;;;2.00;1.55;;;36.20;99.90;;;;;;5048482;28;20100;-81
2022/08/05 06:11:18;;;;;;;1.40;1.30;;;36.40;97.50;;;;;;5045286;28;20045;-81
2022/08/05 06:13:44;;;;;;;2.15;1.23;;;36.70;94.90;;;;;;5043886;28;20026;-81
2022/08/05 06:16:09;;;;;;;3.75;1.20;;;36.70;92.40;;;;;;5056909;28;20106;-81
2022/08/05 06:18:36;;;;;;;1.65;1.00;;;37.50;90.00;;;;;;5050372;28;20028;-80
2022/08/05 06:21:02;;;;;;;1.90;0.80;;;38.20;86.60;;;;;;5043488;28;20045;-81
2022/08/05 06:23:28;;;;;;;2.45;0.90;;;38.90;77.30;;;;;;5060228;28;20025;-81
2022/08/05 06:25:53;;;;;;;1.48;0.50;;;39.20;72.00;;;;;;5057045;28;20052;-81
2022/08/05 06:28:19;;;;;;;0.75;0.50;;;35.60;65.20;;;;;;5054994;28;20021;-81
2022/08/05 06:30:44;;;;;;;2.92;1.00;;;30.90;69.40;;;;;;5054413;28;20089;-81
2022/08/05 06:33:10;;;;;;;1.63;0.52;;;28.40;80.50;;;;;;5054701;28;20024;-81
2022/08/05 06:35:36;;;;;;;1.20;0.60;;;31.50;89.40;;;;;;5053874;28;20170;-81
2022/08/05 06:38:01;;;;;;;1.95;0.70;;;33.60;87.10;;;;;;5054891;28;20017;-81
2022/08/05 06:40:27;;;;;;;1.42;0.60;;;34.70;84.40;;;;;;5055959;28;20029;-81
2022/08/05 06:42:52;;;;;;;1.83;0.50;;;35.00;81.10;;;;;;5053564;28;20021;-81
2022/08/05 06:45:20;;;;;;;1.75;0.52;;;34.90;78.40;;;;;;5053078;28;20040;-81
2022/08/05 06:47:45;;;;;;;1.65;0.60;;;36.10;76.40;;;;;;5053400;28;20130;-81
2022/08/05 06:50:11;;;;;;;0.95;0.40;;;36.80;73.70;;;;;;5053205;28;20045;-81
2022/08/05 06:52:36;;;;;;;1.42;0.50;;;36.60;71.50;;;;;;5052954;28;20021;-81
2022/08/05 06:55:02;;;;;;;2.50;0.55;;;30.90;69.80;;;;;;5052866;28;20468;-80
2022/08/05 06:57:27;;;;;;;2.15;0.55;;;28.70;77.60;;;;;;5052872;28;20438;-81
2022/08/05 07:03:52;;;;;;;3.20;0.70;;;25.70;93.90;;;;;;5053400;28;20051;-81
2022/08/05 07:06:18;;;;;;;3.55;0.70;;;24.80;99.90;;;;;;5053410;28;20033;-81
2022/08/05 07:08:43;;;;;;;2.47;0.55;;;24.20;99.90;;;;;;5056607;28;20092;-82
2022/08/05 07:11:11;;;;;;;1.50;0.50;;;23.10;99.90;;;;;;5056808;28;20550;-82
2022/08/05 07:19:04;;;;;;;1.88;0.80;;;33.10;97.50;;;;;;5062295;28;20031;-78
2022/08/05 07:21:30;;;;;;;1.05;0.50;;;34.70;92.90;;;;;;5045770;28;20029;-78
2022/08/05 07:23:56;;;;;;;1.85;0.43;;;35.20;87.20;;;;;;5059258;28;20040;-78
2022/08/05 07:26:22;;;;;;;0.55;0.40;;;35.70;77.60;;;;;;5061081;28;20373;-78
2022/08/05 07:28:49;;;;;;;2.97;0.63;;;37.40;72.80;;;;;;5049569;28;20093;-79
2022/08/05 07:31:16;;;;;;;1.05;0.40;;;36.50;63.00;;;;;;5063939;28;20084;-78
2022/08/05 07:33:41;;;;;;;1.42;0.43;;;36.50;60.90;;;;;;5058486;28;20032;-80
2022/08/05 07:36:07;;;;;;;2.47;0.50;;;36.50;55.80;;;;;;5055941;28;20049;-79
2022/08/05 07:38:35;;;;;;;2.65;0.68;;;36.40;55.20;;;;;;5067269;28;20032;-83
2022/08/05 07:41:02;;;;;;;1.50;0.30;;;37.60;53.50;;;;;;5052833;28;20029;-80
2022/08/05 07:43:28;;;;;;;0.47;0.30;;;37.10;50.00;;;;;;5037252;28;20036;-80
2022/08/05 07:45:53;;;;;;;3.10;0.40;;;38.50;48.10;;;;;;5056936;28;20116;-79
2022/08/05 07:48:19;;;;;;;1.85;0.30;;;38.10;45.90;;;;;;5055055;28;20033;-79
2022/08/05 07:50:44;;;;;;;1.52;0.70;;;38.90;41.40;;;;;;5050176;28;20029;-83
2022/08/05 07:53:10;;;;;;;2.38;0.50;;;37.00;37.70;;;;;;5048337;28;20032;-85
2022/08/05 07:55:36;;;;;;;1.63;0.38;;;37.20;39.00;;;;;;5054998;28;20108;-83
2022/08/05 07:58:01;;;;;;;2.65;0.30;;;38.30;38.30;;;;;;5060395;28;20027;-83
2022/08/05 08:00:27;;;;;;;1.58;0.40;;;38.80;35.60;;;;;;5053513;28;20128;-82
2022/08/05 08:02:52;;;;;;;2.17;0.40;;;39.70;34.60;;;;;;5039681;28;20071;-82
2022/08/05 08:05:18;;;;;;;1.10;0.50;;;36.50;31.10;;;;;;5038446;28;20061;-82
2022/08/05 08:07:44;;;;;;;1.40;0.30;;;36.00;33.20;;;;;;5036463;28;20495;-83
2022/08/05 08:10:09;;;;;;;1.85;0.35;;;38.10;32.50;;;;;;5036130;28;20021;-83
2022/08/05 08:12:35;;;;;;;2.13;0.47;;;38.80;30.50;;;;;;5036747;28;20068;-82
2022/08/05 08:15:02;;;;;;;0.68;0.20;;;39.10;28.20;;;;;;5048629;28;20070;-81
2022/08/05 08:17:28;;;;;;;1.85;0.30;;;37.30;24.60;;;;;;5061834;28;20001;-81
2022/08/05 08:19:53;;;;;;;2.05;0.45;;;34.00;25.10;;;;;;5063214;28;20116;-82
2022/08/05 08:22:27;;;;;;;2.78;0.30;;;37.40;28.00;;;;;;5056802;28;20033;-82
2022/08/05 08:24:53;;;;;;;1.52;0.30;;;38.40;24.80;;;;;;5089819;28;20048;-82
2022/08/05 08:27:18;;;;;;;1.80;0.30;;;39.10;24.60;;;;;;5073045;28;20503;-81
2022/08/05 08:29:44;;;;;;;0.47;0.13;;;39.60;20.90;;;;;;5052717;28;20032;-80
2022/08/05 08:32:09;;;;;;;0.52;0.22;;;39.20;18.90;;;;;;5067182;28;20031;-82
2022/08/05 08:34:35;;;;;;;0.95;0.20;;;38.40;17.60;;;;;;5055808;28;20036;-82
2022/08/05 08:37:01;;;;;;;1.08;0.20;;;38.30;17.90;;;;;;5058315;28;20056;-81
2022/08/05 08:39:26;;;;;;;1.40;0.20;;;38.40;17.60;;;;;;5047403;28;20025;-80
2022/08/05 08:41:55;;;;;;;1.17;0.40;;;38.60;16.80;;;;;;5041897;28;20022;-81
2022/08/05 08:44:23;;;;;;;1.00;0.20;;;39.60;15.20;;;;;;5050856;28;20022;-81
2022/08/05 08:46:49;;;;;;;0.73;0.22;;;37.90;13.60;;;;;;5057900;28;20041;-81
2022/08/05 08:49:16;;;;;;;0.77;0.30;;;38.20;13.90;;;;;;5067291;28;20025;-80
2022/08/05 08:51:47;;;;;;;0.45;0.20;;;38.30;12.80;;;;;;5053466;28;20038;-80
2022/08/05 08:54:14;;;;;;;0.38;0.20;;;38.90;12.80;;;;;;5046628;28;20443;-79
2022/08/05 08:56:40;;;;;;;1.30;0.30;;;38.40;12.20;;;;;;5047951;28;20036;-79
2022/08/05 08:59:06;;;;;;;1.40;0.30;;;39.30;11.60;;;;;;5057459;28;20029;-80
2022/08/05 09:01:32;;;;;;;1.60;0.40;;;39.60;10.40;;;;;;5057723;28;20147;-80
2022/08/05 09:03:59;;;;;;;1.02;0.20;;;37.60;10.30;;;;;;5054019;28;20024;-80
2022/08/05 09:06:27;;;;;;;0.93;0.20;;;38.30;9.90;;;;;;5053968;28;20095;-80
2022/08/05 09:08:53;;;;;;;0.70;0.20;;;36.70;9.30;;;;;;5060976;28;20025;-80
2022/08/05 09:11:19;;;;;;;0.43;0.20;;;36.70;8.40;;;;;;5054468;28;20091;-80
2022/08/05 09:13:44;;;;;;;0.65;0.20;;;35.90;8.10;;;;;;5047904;28;20028;-80
2022/08/05 09:16:11;;;;;;;0.38;0.20;;;35.60;9.50;;;;;;5055785;28;20056;-79
2022/08/05 09:18:37;;;;;;;0.43;0.20;;;35.60;9.40;;;;;;5051595;28;20109;-82
2022/08/05 09:21:04;;;;;;;1.13;0.20;;;37.40;10.40;;;;;;5053529;28;20025;-82
2022/08/05 09:23:30;;;;;;;1.85;0.30;;;37.60;6.90;;;;;;5055874;28;20037;-82
2022/08/05 09:26:10;;;;;;;1.40;0.30;;;38.50;8.10;;;;;;5055524;28;20155;-81
2022/08/05 09:28:37;;;;;;;1.00;0.20;;;37.90;7.30;;;;;;5052098;28;20017;-80
2022/08/05 09:31:11;;;;;;;0.50;0.20;;;38.90;6.20;;;;;;5055045;28;20043;-80
2022/08/05 09:33:59;;;;;;;0.47;0.20;;;38.90;5.00;;;;;;5048982;28;20025;-80
2022/08/05 09:36:39;;;;;;;1.13;0.30;;;38.60;4.00;;;;;;5048395;28;20075;-82
2022/08/05 09:39:07;;;;;;;0.60;0.57;;;38.50;4.20;;;;;;5058318;28;20025;-80
2022/08/05 09:41:32;;;;;;;0.93;0.17;;;38.40;4.80;;;;;;5048726;28;20040;-82
2022/08/05 09:43:58;;;;;;;0.85;0.20;;;38.40;4.40;;;;;;5053029;28;20021;-81
2022/08/05 09:46:26;;;;;;;1.10;0.40;;;37.80;4.80;;;;;;5045388;28;20099;-82
2022/08/05 09:48:53;;;;;;;1.15;0.20;;;38.40;7.30;;;;;;5058915;28;20033;-82
2022/08/05 09:51:33;;;;;;;2.53;0.40;;;38.00;3.80;;;;;;5058787;28;20014;-83
2022/08/05 09:54:00;;;;;;;0.85;0.40;;;39.10;4.50;;;;;;5056050;28;20068;-79
2022/08/05 09:56:32;;;;;;;0.35;0.28;;;39.00;3.80;;;;;;5062651;28;20075;-80
2022/08/05 09:59:02;;;;;;;0.88;0.20;;;37.70;5.10;;;;;;5051765;28;20021;-82
2022/08/05 10:01:29;;;;;;;1.20;0.30;;;38.60;5.50;;;;;;5038269;28;20511;-82
2022/08/05 10:04:02;;;;;;;0.60;0.25;;;34.90;5.50;;;;;;5043034;28;20029;-81
2022/08/05 10:06:28;;;;;;;0.63;0.20;;;34.60;6.10;;;;;;5052556;28;20041;-81
2022/08/05 10:08:54;;;;;;;0.30;0.30;;;33.00;6.20;;;;;;5039460;28;20029;-82
2022/08/05 10:11:20;;;;;;;2.45;0.25;;;30.40;6.90;;;;;;5047267;28;20025;-80
2022/08/05 10:13:46;;;;;;;0.50;0.30;;;32.30;10.00;;;;;;5050414;28;20033;-80
2022/08/05 10:16:34;;;;;;;0.10;0.10;;;36.00;9.60;;;;;;5051407;28;20083;-81
2022/08/05 10:19:01;;;;;;;0.25;0.20;;;33.90;7.70;;;;;;5059334;28;20116;-80
2022/08/05 10:21:27;;;;;;;0.10;0.10;;;36.90;8.50;;;;;;5058583;28;20029;-80
2022/08/05 10:23:54;;;;;;;0.40;0.20;;;33.10;5.80;;;;;;5068850;28;20161;-80
2022/08/05 10:26:19;;;;;;;0.68;0.20;;;32.50;8.00;;;;;;5067293;28;20033;-80
2022/08/05 10:28:46;;;;;;;1.75;0.20;;;34.50;8.80;;;;;;5066563;28;20025;-82
2022/08/05 10:31:14;;;;;;;0.28;0.20;;;36.40;9.30;;;;;;5068656;28;20029;-81
2022/08/05 10:33:41;;;;;;;0.55;0.20;;;37.40;7.40;;;;;;5055269;28;20061;-80
2022/08/05 10:36:06;;;;;;;0.45;0.20;;;35.30;5.30;;;;;;5065936;28;20052;-80
2022/08/05 10:38:34;;;;;;;1.52;0.30;;;34.80;5.40;;;;;;5064013;28;20021;-81
2022/08/05 10:41:26;;;;;;;1.20;0.20;;;35.80;6.60;;;;;;5066012;28;20036;-80
2022/08/05 10:44:01;;;;;;;2.55;0.30;;;36.60;9.20;;;;;;5071153;28;20025;-80
2022/08/05 10:46:49;;;;;;;1.85;0.28;;;33.30;5.70;;;;;;5070672;28;20485;-80
2022/08/05 10:49:15;;;;;;;0.65;0.30;;;33.00;10.50;;;;;;5070689;28;20492;-80
2022/08/05 10:51:56;;;;;;;1.50;0.25;;;31.70;8.20;;;;;;5067578;28;20069;-81
2022/08/05 10:54:23;;;;;;;0.60;0.20;;;30.60;8.30;;;;;;5067584;28;20033;-80
2022/08/05 10:56:56;;;;;;;0.55;0.30;;;31.10;10.10;;;;;;5069555;28;20040;-80
2022/08/05 10:59:26;;;;;;;2.40;0.30;;;30.60;10.80;;;;;;5070113;28;20066;-80
2022/08/05 11:02:10;;;;;;;1.65;0.32;;;29.00;11.50;;;;;;5070618;28;20025;-80
2022/08/05 11:05:04;;;;;;;0.98;0.35;;;28.00;13.00;;;;;;5072633;28;20091;-80
2022/08/05 11:07:30;;;;;;;2.63;0.38;;;27.20;14.30;;;;;;5068739;28;20037;-80
2022/08/05 11:09:56;;;;;;;0.30;0.20;;;26.80;15.40;;;;;;5065318;28;20028;-80
2022/08/05 11:12:42;;;;;;;2.30;0.30;;;26.20;16.60;;;;;;5067983;28;20071;-80
2022/08/05 11:15:33;;;;;;;0.57;0.30;;;26.20;18.10;;;;;;5070548;28;20021;-80
2022/08/05 11:18:27;;;;;;;0.90;0.20;;;25.90;18.60;;;;;;5072372;28;20091;-80
2022/08/05 11:20:53;;;;;;;2.80;0.35;;;25.10;20.40;;;;;;5071524;28;20037;-80
2022/08/05 11:23:32;;;;;;;1.90;0.30;;;24.80;22.10;;;;;;5070456;28;20085;-80
2022/08/05 11:26:10;;;;;;;0.65;0.20;;;25.10;23.30;;;;;;5074040;28;20039;-79
2022/08/05 11:28:37;;;;;;;1.30;0.30;;;25.40;24.20;;;;;;5076542;28;20029;-79
2022/08/05 11:31:02;;;;;;;3.80;0.20;;;25.30;24.40;;;;;;5074873;28;20013;-79
2022/08/05 11:33:32;;;;;;;0.20;0.20;;;25.30;25.20;;;;;;5073014;28;20025;-79
2022/08/05 11:36:01;;;;;;;;;;;24.80;26.40;;;;;;5073998;28;20472;-80
2022/08/05 11:38:47;;;;;;;1.90;0.20;;;25.60;28.60;;;;;;5073205;28;19905;-80
2022/08/05 11:41:25;;;;;;;0.98;0.30;;;26.10;28.10;;;;;;5073299;28;20074;-80
2022/08/05 11:44:05;;;;;;;0.40;0.20;;;25.70;27.50;;;;;;5077856;28;20032;-80
2022/08/05 11:46:37;;;;;;;0.57;0.20;;;25.30;28.10;;;;;;5078665;28;20020;-80
2022/08/05 11:49:05;;;;;;;1.17;0.20;;;24.80;29.30;;;;;;5078344;28;20053;-80
2022/08/05 11:51:31;;;;;;;0.43;0.22;;;24.70;30.40;;;;;;5075244;28;20033;-80
2022/08/05 11:53:59;;;;;;;1.75;0.50;;;24.50;33.00;;;;;;5072488;28;20033;-80
2022/08/05 11:56:25;;;;;;;0.90;0.20;;;24.80;34.50;;;;;;5075450;28;20419;-80
2022/08/05 11:58:51;;;;;;;0.30;0.17;;;25.20;34.80;;;;;;5074796;28;20029;-80
2022/08/05 12:01:21;;;;;;;0.85;0.20;;;24.80;33.80;;;;;;5074401;28;20029;-79
2022/08/05 12:03:52;;;;;;;0.10;0.10;;;25.00;33.30;;;;;;5076814;28;20032;-80
2022/08/05 12:06:21;;;;;;;0.45;0.20;;;25.30;31.70;;;;;;5075924;28;20041;-80
2022/08/05 12:08:51;;;;;;;1.27;0.30;;;25.80;32.30;;;;;;5074269;28;20036;-80
2022/08/05 12:11:17;;;;;;;0.45;0.20;;;25.30;32.90;;;;;;5076026;28;20186;-80
2022/08/05 12:13:55;;;;;;;0.52;0.22;;;24.70;34.40;;;;;;5076781;28;20032;-80
2022/08/05 12:16:22;;;;;;;0.60;0.28;;;25.20;35.80;;;;;;5076531;28;20028;-80
2022/08/05 12:18:47;;;;;;;0.95;0.20;;;24.90;35.40;;;;;;5074858;28;20027;-80
2022/08/05 12:21:17;;;;;;;0.70;0.30;;;24.10;36.10;;;;;;5075393;28;20021;-80
2022/08/05 12:23:57;;;;;;;0.55;0.20;;;24.40;37.00;;;;;;5075551;28;20040;-80
2022/08/05 12:26:23;;;;;;;0.35;0.10;;;25.00;38.90;;;;;;5076547;28;20041;-80
2022/08/05 12:28:48;;;;;;;1.13;0.30;;;24.80;37.70;;;;;;5075331;28;20031;-79
2022/08/05 12:31:17;;;;;;;0.75;0.20;;;24.80;37.00;;;;;;5074090;28;20032;-80
2022/08/05 12:33:44;;;;;;;2.22;0.30;;;25.30;37.70;;;;;;5072248;28;20062;-80
2022/08/05 12:36:10;;;;;;;0.57;0.20;;;24.90;36.60;;;;;;5072097;28;20552;-80
2022/08/05 12:38:38;;;;;;;7.80;0.63;;;25.20;38.50;;;;;;5073727;28;20100;-80
2022/08/05 12:41:12;;;;;;;6.80;1.27;;;24.20;43.30;;;;;;5072056;28;20088;-79
2022/08/05 12:43:50;;;;;;;7.25;1.05;;;23.60;49.50;;;;;;5074078;28;20015;-79
2022/08/05 12:46:24;;;;;;;4.65;0.65;;;24.10;55.80;;;;;;5078657;28;20044;-80
2022/08/05 12:49:08;;;;;;;1.63;0.40;;;23.90;59.80;;;;;;5078902;28;20001;-80
2022/08/05 12:51:56;;;;;;;3.40;0.30;;;23.50;60.40;;;;;;5078526;28;20039;-80
2022/08/05 12:54:30;;;;;;;1.65;0.40;;;23.00;63.20;;;;;;5078499;28;20002;-81
2022/08/05 12:56:58;;;;;;;1.42;0.20;;;23.10;66.10;;;;;;5076999;28;20033;-80
2022/08/05 12:59:44;;;;;;;4.00;0.50;;;23.10;68.10;;;;;;5076577;28;20017;-80
2022/08/05 13:02:12;;;;;;;2.60;0.20;;;23.30;70.40;;;;;;5075539;28;20085;-80
2022/08/05 13:04:40;;;;;;;4.93;0.50;;;23.70;70.60;;;;;;5077626;28;20017;-80
2022/08/05 13:07:11;;;;;;;2.92;0.55;;;22.90;70.50;;;;;;5076424;28;20050;-80
2022/08/05 13:09:39;;;;;;;5.45;0.50;;;22.70;71.80;;;;;;5075414;28;20084;-80
2022/08/05 13:12:07;;;;;;;0.43;0.20;;;23.00;74.60;;;;;;5075133;28;20049;-80